Time;durP1;ratioP1;P1;durP2;ratioP2;P2;SDS_P1;SDS_P2;PMS_P1;PMS_P2;Temp;Humidity;BMP_temperature;BMP_pressure;BME280_temperature;BME280_humidity;BME280_pressure;Samples;Min_cycle;Max_cycle;Signal;HPM_P1;HPM_P2
2022/01/25 00:15:29;;;;;;;7.13;4.32;;;6.10;60.60;;;;;;5074775;28;20043;-21
2022/01/25 00:29:04;;;;;;;12.50;7.47;;;6.20;60.90;;;;;;5074171;28;20112;-20
2022/01/25 00:31:35;;;;;;;10.00;5.60;;;6.10;60.70;;;;;;5074346;28;20075;-20
2022/01/25 00:34:02;;;;;;;5.95;3.53;;;6.10;60.90;;;;;;5074155;28;20024;-20
2022/01/25 00:36:29;;;;;;;7.05;4.43;;;6.10;60.80;;;;;;5074068;28;20024;-20
2022/01/25 00:38:56;;;;;;;8.95;5.38;;;6.10;60.60;;;;;;5074105;28;20097;-21
2022/01/25 00:41:24;;;;;;;9.75;5.78;;;6.10;60.40;;;;;;5073903;28;20020;-20
2022/01/25 00:43:52;;;;;;;12.27;7.55;;;6.10;60.60;;;;;;5074008;28;20025;-20
2022/01/25 00:46:21;;;;;;;13.38;7.18;;;6.10;60.90;;;;;;5073516;28;20560;-21
2022/01/25 00:48:50;;;;;;;11.35;7.45;;;6.10;61.30;;;;;;5073685;28;20584;-20
2022/01/25 00:56:36;;;;;;;11.25;7.35;;;6.10;60.70;;;;;;5073695;28;20028;-20
2022/01/25 00:59:09;;;;;;;13.35;7.60;;;6.10;60.80;;;;;;5074325;28;20025;-20
2022/01/25 01:01:37;;;;;;;14.55;8.27;;;6.10;61.10;;;;;;5073876;28;20055;-21
2022/01/25 01:04:04;;;;;;;9.98;6.63;;;6.00;61.30;;;;;;5073365;28;20523;-20
2022/01/25 01:06:31;;;;;;;11.68;7.10;;;6.00;61.30;;;;;;5073304;28;20040;-20
2022/01/25 01:08:57;;;;;;;9.57;5.55;;;6.10;61.50;;;;;;5073463;28;20472;-21
2022/01/25 01:11:33;;;;;;;6.10;3.60;;;6.00;61.20;;;;;;5073228;28;20396;-21
2022/01/25 01:33:13;;;;;;;6.13;3.40;;;6.10;60.70;;;;;;5073055;28;20029;-21
2022/01/25 01:43:33;;;;;;;3.80;2.88;;;6.10;60.50;;;;;;5073083;28;20025;-21
2022/01/25 01:48:50;;;;;;;11.13;6.15;;;6.10;60.60;;;;;;5073835;28;20123;-21
2022/01/25 01:51:42;;;;;;;13.00;7.07;;;6.10;60.50;;;;;;5073089;28;20094;-20
2022/01/25 01:54:10;;;;;;;11.75;6.72;;;6.10;60.60;;;;;;5072747;28;20427;-20
2022/01/25 01:56:38;;;;;;;9.38;5.57;;;6.10;61.60;;;;;;5072944;28;20393;-21
2022/01/25 01:59:08;;;;;;;6.32;3.53;;;6.10;61.30;;;;;;5073105;28;20491;-21
2022/01/25 02:01:36;;;;;;;9.52;5.13;;;6.10;61.00;;;;;;5072821;28;20046;-21
2022/01/25 02:04:04;;;;;;;7.97;5.25;;;6.00;61.50;;;;;;5072780;28;20029;-21
2022/01/25 02:06:30;;;;;;;10.88;5.38;;;6.00;61.30;;;;;;5073180;28;20108;-21
2022/01/25 02:08:57;;;;;;;7.85;4.55;;;6.00;61.80;;;;;;5071497;28;20123;-21
2022/01/25 02:11:23;;;;;;;6.90;3.72;;;6.00;61.60;;;;;;5072633;28;20063;-20
2022/01/25 02:13:50;;;;;;;6.97;3.97;;;6.00;61.30;;;;;;5072640;28;20068;-21
2022/01/25 02:16:34;;;;;;;10.80;6.43;;;6.00;61.20;;;;;;5072619;28;20074;-21
2022/01/25 02:24:32;;;;;;;13.40;7.60;;;5.90;61.40;;;;;;5076637;28;20085;-19
2022/01/25 02:26:58;;;;;;;7.47;3.72;;;5.90;61.60;;;;;;5076629;28;20369;-21
2022/01/25 02:29:25;;;;;;;5.10;3.03;;;5.90;61.40;;;;;;5076724;28;20048;-21
2022/01/25 02:31:55;;;;;;;5.30;3.30;;;5.90;61.30;;;;;;5076505;28;20052;-21
2022/01/25 02:34:22;;;;;;;10.77;6.43;;;5.90;61.20;;;;;;5076407;28;20024;-21
2022/01/25 02:36:59;;;;;;;9.60;6.03;;;5.90;61.30;;;;;;5076198;28;20547;-20
2022/01/25 02:39:26;;;;;;;9.57;5.28;;;5.90;61.60;;;;;;5076515;28;20416;-20
2022/01/25 02:41:52;;;;;;;5.82;3.40;;;5.90;61.60;;;;;;5076321;28;20091;-20
2022/01/25 02:44:26;;;;;;;6.18;4.03;;;5.90;61.40;;;;;;5076508;28;20029;-20
2022/01/25 02:49:20;;;;;;;8.80;5.22;;;5.90;61.50;;;;;;5076625;28;20032;-21
2022/01/25 02:51:48;;;;;;;6.53;4.03;;;5.90;61.30;;;;;;5075718;28;20097;-21
2022/01/25 02:54:16;;;;;;;5.60;3.33;;;5.90;61.40;;;;;;5075852;28;20024;-21
2022/01/25 02:56:44;;;;;;;5.63;3.33;;;5.90;61.30;;;;;;5076233;28;20024;-20
2022/01/25 02:59:12;;;;;;;8.07;4.35;;;5.90;61.30;;;;;;5076916;28;20029;-21
2022/01/25 03:01:40;;;;;;;15.07;6.00;;;5.90;61.30;;;;;;5076146;28;20051;-21
2022/01/25 03:04:07;;;;;;;7.20;4.20;;;5.90;61.80;;;;;;5075997;28;20032;-21
2022/01/25 03:06:34;;;;;;;7.35;4.03;;;6.00;61.40;;;;;;5075522;28;20041;-21
2022/01/25 03:09:00;;;;;;;5.78;3.38;;;5.90;61.30;;;;;;5076302;28;20025;-20
2022/01/25 03:11:27;;;;;;;6.97;4.45;;;5.90;61.30;;;;;;5075535;28;20028;-21
2022/01/25 03:13:58;;;;;;;6.75;3.70;;;5.90;61.30;;;;;;5075874;28;20032;-21
2022/01/25 03:16:39;;;;;;;7.07;3.45;;;5.90;61.30;;;;;;5075443;28;20021;-21
2022/01/25 03:21:58;;;;;;;5.45;3.63;;;5.90;61.30;;;;;;5075777;28;20071;-20
2022/01/25 03:24:26;;;;;;;5.60;3.05;;;5.90;61.30;;;;;;5075477;28;20060;-21
2022/01/25 03:26:52;;;;;;;5.22;3.67;;;5.90;61.30;;;;;;5075548;28;20032;-21
2022/01/25 03:29:18;;;;;;;5.03;3.20;;;6.00;61.40;;;;;;5075465;28;20384;-20
2022/01/25 03:31:44;;;;;;;3.83;2.85;;;5.90;61.30;;;;;;5075524;28;20017;-21
2022/01/25 03:34:10;;;;;;;5.80;3.30;;;6.00;61.30;;;;;;5075246;28;20522;-21
2022/01/25 03:36:36;;;;;;;5.35;2.92;;;6.00;61.30;;;;;;5075021;28;20052;-20
2022/01/25 03:39:05;;;;;;;5.55;3.20;;;5.90;61.30;;;;;;5075636;28;20111;-21
2022/01/25 03:41:31;;;;;;;4.47;2.90;;;6.00;61.20;;;;;;5074933;28;20035;-21
2022/01/25 03:43:57;;;;;;;6.35;3.38;;;6.00;61.30;;;;;;5075343;28;20055;-20
2022/01/25 03:46:55;;;;;;;6.07;3.72;;;6.00;61.30;;;;;;5075067;28;20060;-21
2022/01/25 03:52:06;;;;;;;15.38;9.02;;;6.00;61.50;;;;;;5074887;28;20086;-21
2022/01/25 03:54:33;;;;;;;10.07;6.28;;;6.00;62.90;;;;;;5075175;28;20115;-21
2022/01/25 03:56:59;;;;;;;6.85;4.13;;;5.90;62.20;;;;;;5074662;28;20028;-20
2022/01/25 03:59:25;;;;;;;10.77;5.78;;;5.90;62.00;;;;;;5075414;28;20453;-21
2022/01/25 04:01:51;;;;;;;4.97;3.20;;;5.90;62.10;;;;;;5074626;28;20032;-21
2022/01/25 04:04:21;;;;;;;5.50;3.20;;;5.90;61.90;;;;;;5074390;28;20064;-21
2022/01/25 04:06:51;;;;;;;6.95;4.15;;;5.90;61.80;;;;;;5074884;28;20028;-21
2022/01/25 04:09:17;;;;;;;10.10;5.43;;;5.90;61.80;;;;;;5074488;28;20393;-21
2022/01/25 04:11:43;;;;;;;7.75;4.32;;;5.90;61.90;;;;;;5074610;28;20020;-21
2022/01/25 04:14:10;;;;;;;7.63;4.63;;;5.90;61.90;;;;;;5074375;28;20021;-21
2022/01/25 04:16:43;;;;;;;11.52;5.40;;;5.90;61.90;;;;;;5074780;28;20108;-21
2022/01/25 04:19:14;;;;;;;9.50;5.53;;;5.90;62.00;;;;;;5074292;28;20166;-21
2022/01/25 04:26:54;;;;;;;5.75;3.40;;;5.90;62.80;;;;;;5074602;28;20120;-21
2022/01/25 04:29:20;;;;;;;5.97;3.35;;;5.90;62.90;;;;;;5072772;28;20025;-21
2022/01/25 04:31:46;;;;;;;5.53;3.33;;;5.90;62.50;;;;;;5074038;28;20073;-21
2022/01/25 04:50:38;;;;;;;;;;;5.90;63.00;;;;;;5074318;28;20035;-22
2022/01/25 04:53:11;;;;;;;5.18;3.28;;;5.90;63.70;;;;;;5073384;28;19917;-21
2022/01/25 04:55:46;;;;;;;4.97;3.17;;;5.90;63.10;;;;;;5073898;28;20024;-21
2022/01/25 04:58:19;;;;;;;5.35;3.50;;;5.90;63.20;;;;;;5073907;28;20028;-21
2022/01/25 05:00:47;;;;;;;;;;;6.00;62.90;;;;;;5074028;28;20029;-21
2022/01/25 05:03:19;;;;;;;11.52;6.60;;;6.00;63.60;;;;;;5073502;28;20264;-21
2022/01/25 05:05:57;;;;;;;8.38;4.78;;;6.00;63.60;;;;;;5074119;28;20082;-21
2022/01/25 05:08:41;;;;;;;8.93;5.07;;;6.00;62.90;;;;;;5073314;28;20039;-21
2022/01/25 05:18:39;;;;;;;13.82;8.15;;;6.00;64.10;;;;;;5073367;28;20029;-21
2022/01/25 05:23:50;;;;;;;;;;;5.90;63.60;;;;;;5073767;28;20078;-21
2022/01/25 05:26:16;;;;;;;11.77;6.93;;;6.00;64.50;;;;;;5073001;28;19911;-21
2022/01/25 05:28:42;;;;;;;9.88;5.65;;;5.90;64.40;;;;;;5071829;28;20016;-21
2022/01/25 05:31:08;;;;;;;9.60;6.13;;;5.90;64.00;;;;;;5071925;28;20024;-21
2022/01/25 05:33:34;;;;;;;6.68;3.85;;;5.90;63.60;;;;;;5073361;28;20021;-21
2022/01/25 05:36:00;;;;;;;5.63;3.55;;;5.90;63.30;;;;;;5073075;28;20051;-21
2022/01/25 05:38:26;;;;;;;8.75;5.18;;;5.90;63.30;;;;;;5072755;28;20115;-21
2022/01/25 05:41:03;;;;;;;13.07;7.82;;;5.90;63.30;;;;;;5072925;28;20024;-21
2022/01/25 05:48:37;;;;;;;13.02;8.95;;;5.90;63.80;;;;;;5072880;28;20032;-21
2022/01/25 05:51:03;;;;;;;9.15;5.63;;;5.90;65.20;;;;;;5072691;28;20059;-21
2022/01/25 05:53:29;;;;;;;6.88;3.97;;;5.90;64.50;;;;;;5076779;28;20032;-21
2022/01/25 05:55:55;;;;;;;9.70;6.00;;;5.80;64.00;;;;;;5076939;28;20094;-21
2022/01/25 05:58:21;;;;;;;12.68;7.70;;;5.90;64.30;;;;;;5075427;28;20031;-21
2022/01/25 06:00:47;;;;;;;11.48;6.53;;;5.80;65.40;;;;;;5077928;28;20051;-21
2022/01/25 06:03:13;;;;;;;23.92;11.85;;;5.80;64.50;;;;;;5077152;28;20480;-21
2022/01/25 06:05:40;;;;;;;14.23;7.38;;;5.80;65.30;;;;;;5076858;28;20025;-21
2022/01/25 06:08:06;;;;;;;14.70;7.85;;;5.80;65.00;;;;;;5076842;28;20107;-21
2022/01/25 06:10:33;;;;;;;10.13;4.95;;;5.80;64.90;;;;;;5076531;28;20056;-20
2022/01/25 06:12:59;;;;;;;11.07;6.55;;;5.80;64.80;;;;;;5076693;28;20040;-21
2022/01/25 06:15:26;;;;;;;11.73;6.88;;;5.80;64.70;;;;;;5077302;28;20050;-21
2022/01/25 06:17:52;;;;;;;10.02;5.03;;;5.90;64.50;;;;;;5076558;28;20032;-21
2022/01/25 06:20:18;;;;;;;8.55;4.88;;;5.90;64.40;;;;;;5076376;28;20575;-21
2022/01/25 06:22:45;;;;;;;8.77;4.68;;;5.90;64.30;;;;;;5076789;28;20492;-21
2022/01/25 06:25:12;;;;;;;6.60;4.10;;;5.90;64.30;;;;;;5076490;28;20036;-21
2022/01/25 06:27:43;;;;;;;7.70;4.00;;;5.90;64.20;;;;;;5076271;28;20033;-21
2022/01/25 06:30:16;;;;;;;9.85;6.10;;;6.00;63.90;;;;;;5076571;28;20023;-21
2022/01/25 06:32:43;;;;;;;8.00;3.97;;;6.00;63.90;;;;;;5076733;28;20051;-21
2022/01/25 06:35:10;;;;;;;8.30;4.80;;;6.00;64.00;;;;;;5076722;28;20567;-21
2022/01/25 06:37:36;;;;;;;7.20;4.80;;;6.00;63.90;;;;;;5076566;28;20021;-21
2022/01/25 06:40:05;;;;;;;9.90;5.35;;;6.00;63.90;;;;;;5076139;28;20037;-20
2022/01/25 06:42:31;;;;;;;6.85;4.30;;;6.00;64.20;;;;;;5075933;28;20468;-20
2022/01/25 06:45:02;;;;;;;11.43;6.20;;;6.00;63.90;;;;;;5076135;28;20502;-20
2022/01/25 06:47:28;;;;;;;9.00;4.47;;;6.10;63.80;;;;;;5076434;28;20055;-20
2022/01/25 06:49:56;;;;;;;6.78;4.10;;;6.00;63.90;;;;;;5076346;28;20061;-20
2022/01/25 06:52:21;;;;;;;7.10;4.53;;;6.10;63.80;;;;;;5075858;28;20049;-20
2022/01/25 06:54:47;;;;;;;7.32;4.90;;;6.10;63.80;;;;;;5076262;28;20031;-20
2022/01/25 06:57:14;;;;;;;6.18;3.85;;;6.00;63.70;;;;;;5076027;28;20028;-20
2022/01/25 06:59:40;;;;;;;8.35;4.53;;;6.00;63.70;;;;;;5076346;28;20135;-20
2022/01/25 07:02:08;;;;;;;6.82;4.47;;;6.00;63.70;;;;;;5075837;28;20029;-20
2022/01/25 07:04:35;;;;;;;6.72;4.00;;;6.00;63.80;;;;;;5075084;28;20481;-20
2022/01/25 07:07:01;;;;;;;7.28;3.50;;;6.00;63.90;;;;;;5075667;28;20127;-20
2022/01/25 07:09:28;;;;;;;6.68;3.70;;;6.00;63.80;;;;;;5075665;28;20115;-20
2022/01/25 07:11:55;;;;;;;7.72;4.57;;;6.00;63.80;;;;;;5075583;28;20033;-20
2022/01/25 07:14:21;;;;;;;13.05;7.88;;;6.00;63.90;;;;;;5075394;28;20563;-20
2022/01/25 07:16:47;;;;;;;8.30;4.40;;;6.00;63.90;;;;;;5075536;28;20099;-20
2022/01/25 07:20:43;;;;;;;8.55;5.68;;;6.00;64.40;;;;;;5090565;27;20484;-20
2022/01/25 07:23:09;;;;;;;10.57;6.95;;;6.00;64.30;;;;;;5090931;28;20040;-21
2022/01/25 07:25:35;;;;;;;11.18;6.68;;;6.00;65.10;;;;;;5090887;28;20488;-21
2022/01/25 07:28:01;;;;;;;20.58;13.32;;;6.00;64.70;;;;;;5090478;28;20400;-20
2022/01/25 07:30:27;;;;;;;14.20;7.47;;;6.00;64.80;;;;;;5090375;28;20048;-21
2022/01/25 07:32:53;;;;;;;10.80;6.40;;;6.10;64.80;;;;;;5090710;28;20115;-21
2022/01/25 07:35:19;;;;;;;15.20;9.23;;;6.10;64.50;;;;;;5090415;28;20392;-20
2022/01/25 07:37:45;;;;;;;24.58;15.93;;;6.10;64.80;;;;;;5090644;28;20028;-21
2022/01/25 07:40:12;;;;;;;20.90;13.73;;;6.10;64.90;;;;;;5090538;28;20502;-20
2022/01/25 07:42:39;;;;;;;18.05;11.05;;;6.10;65.50;;;;;;5090208;28;20040;-21
2022/01/25 07:45:09;;;;;;;18.33;11.90;;;6.10;65.50;;;;;;5090499;28;20035;-21
2022/01/25 07:47:36;;;;;;;21.42;13.40;;;6.10;65.70;;;;;;5090158;28;20043;-21
2022/01/25 07:50:07;;;;;;;17.80;11.18;;;6.10;66.30;;;;;;5090224;28;20029;-21
2022/01/25 07:52:33;;;;;;;17.15;9.95;;;6.10;66.10;;;;;;5090252;28;20021;-20
2022/01/25 07:54:59;;;;;;;16.60;10.32;;;6.10;66.60;;;;;;5089984;28;20369;-21
2022/01/25 07:57:25;;;;;;;21.83;14.98;;;6.10;66.90;;;;;;5090258;28;20112;-20
2022/01/25 07:59:51;;;;;;;18.20;11.68;;;6.10;67.40;;;;;;5089899;28;20174;-21
2022/01/25 08:02:19;;;;;;;21.33;13.00;;;6.10;66.90;;;;;;5089798;28;20020;-21
2022/01/25 08:04:47;;;;;;;29.27;20.17;;;6.10;66.90;;;;;;5089862;28;20032;-21
2022/01/25 08:07:14;;;;;;;26.80;17.17;;;6.10;66.70;;;;;;5090097;28;20024;-21
2022/01/25 08:09:40;;;;;;;24.67;15.15;;;6.10;67.00;;;;;;5090040;28;20081;-21
2022/01/25 08:12:06;;;;;;;20.30;12.40;;;6.10;66.70;;;;;;5089698;28;20028;-21
2022/01/25 08:14:32;;;;;;;16.10;10.93;;;6.10;66.60;;;;;;5089448;28;20427;-21
2022/01/25 08:16:58;;;;;;;17.50;11.57;;;6.10;66.90;;;;;;5089924;28;20047;-21
2022/01/25 08:19:24;;;;;;;16.30;11.02;;;6.20;66.60;;;;;;5089564;28;20496;-21
2022/01/25 08:21:50;;;;;;;12.57;7.80;;;6.20;66.60;;;;;;5089488;28;20034;-21
2022/01/25 08:24:20;;;;;;;15.55;9.43;;;6.30;66.20;;;;;;5089338;28;20092;-21
2022/01/25 08:26:48;;;;;;;15.13;9.70;;;6.30;66.10;;;;;;5089956;28;20012;-21
2022/01/25 08:29:14;;;;;;;12.95;8.38;;;6.50;65.90;;;;;;5089662;28;20021;-21
2022/01/25 08:31:40;;;;;;;15.52;9.98;;;6.50;65.80;;;;;;5077952;28;20038;-21
2022/01/25 08:34:08;;;;;;;12.30;7.38;;;6.70;65.60;;;;;;5074588;28;20031;-21
2022/01/25 08:36:34;;;;;;;14.95;9.15;;;6.70;65.20;;;;;;5075502;28;20032;-20
2022/01/25 08:39:01;;;;;;;12.55;7.65;;;6.80;65.30;;;;;;5075678;28;20492;-19
2022/01/25 08:41:27;;;;;;;9.82;5.80;;;6.90;65.00;;;;;;5075942;28;20024;-20
2022/01/25 08:43:53;;;;;;;9.50;5.68;;;7.00;64.70;;;;;;5075593;28;20021;-21
2022/01/25 08:46:20;;;;;;;17.33;11.10;;;7.10;64.50;;;;;;5075307;28;20020;-20
2022/01/25 08:48:46;;;;;;;17.35;9.73;;;7.10;64.00;;;;;;5075866;28;20021;-19
2022/01/25 08:51:18;;;;;;;17.85;10.30;;;7.20;63.90;;;;;;5075514;28;20036;-20
2022/01/25 08:53:45;;;;;;;16.63;10.68;;;7.30;63.60;;;;;;5075721;28;20029;-22
2022/01/25 08:56:11;;;;;;;17.48;9.52;;;7.30;63.60;;;;;;5074064;28;20024;-19
2022/01/25 08:58:38;;;;;;;16.88;9.15;;;7.30;63.00;;;;;;5073880;28;20043;-19
2022/01/25 09:01:04;;;;;;;10.52;6.32;;;7.40;62.90;;;;;;5076177;28;20024;-19
2022/01/25 09:03:30;;;;;;;12.10;5.63;;;7.40;62.90;;;;;;5075256;28;20489;-19
2022/01/25 09:05:56;;;;;;;14.82;8.73;;;7.50;62.90;;;;;;5075291;28;20112;-19
2022/01/25 09:08:23;;;;;;;16.27;9.75;;;7.60;62.90;;;;;;5074931;28;20111;-20
2022/01/25 09:10:53;;;;;;;10.15;5.80;;;7.70;62.50;;;;;;5075045;28;20619;-19
2022/01/25 09:13:19;;;;;;;12.60;6.97;;;7.80;62.50;;;;;;5075351;28;20107;-19
2022/01/25 09:15:46;;;;;;;12.02;6.70;;;7.90;62.30;;;;;;5075461;28;20116;-19
2022/01/25 09:18:12;;;;;;;12.10;7.70;;;7.90;62.10;;;;;;5074799;28;20029;-21
2022/01/25 09:20:39;;;;;;;11.32;5.93;;;8.10;61.90;;;;;;5074831;28;20044;-19
2022/01/25 09:23:05;;;;;;;9.65;5.55;;;8.20;61.40;;;;;;5075168;28;20032;-19
2022/01/25 09:25:31;;;;;;;13.25;8.32;;;8.30;61.50;;;;;;5074784;28;20382;-19
2022/01/25 09:27:58;;;;;;;13.20;7.90;;;8.40;61.20;;;;;;5074739;28;20033;-20
2022/01/25 09:30:24;;;;;;;15.93;10.25;;;8.40;61.00;;;;;;5074508;28;20024;-19
2022/01/25 09:32:50;;;;;;;19.45;11.43;;;8.50;60.50;;;;;;5074668;28;20116;-19
2022/01/25 09:35:17;;;;;;;18.42;12.32;;;8.60;60.50;;;;;;5075172;28;20350;-20
2022/01/25 09:37:43;;;;;;;19.40;12.77;;;8.70;60.40;;;;;;5074919;28;20021;-20
2022/01/25 09:40:10;;;;;;;15.20;9.25;;;8.70;60.10;;;;;;5074640;28;20074;-19
2022/01/25 09:42:38;;;;;;;18.50;11.45;;;8.90;60.10;;;;;;5073145;28;20492;-19
2022/01/25 09:45:05;;;;;;;13.05;7.95;;;8.90;59.80;;;;;;5074979;28;20027;-19
2022/01/25 09:47:32;;;;;;;18.75;10.77;;;9.00;59.90;;;;;;5074344;28;20029;-20
2022/01/25 09:49:57;;;;;;;15.68;9.63;;;9.10;59.80;;;;;;5074271;28;20028;-19
2022/01/25 09:52:24;;;;;;;16.85;10.80;;;9.20;59.70;;;;;;5074048;28;20116;-19
2022/01/25 09:54:59;;;;;;;16.45;10.70;;;9.40;59.10;;;;;;5074524;28;20056;-19
2022/01/25 09:57:25;;;;;;;14.88;10.10;;;9.50;58.80;;;;;;5074147;28;20042;-19
2022/01/25 09:59:51;;;;;;;13.60;8.18;;;9.70;58.70;;;;;;5074381;28;20021;-19
2022/01/25 10:02:59;;;;;;;18.70;9.85;;;9.80;58.50;;;;;;5072670;28;20035;-20
2022/01/25 10:05:36;;;;;;;14.93;8.88;;;10.10;58.20;;;;;;5074429;28;20035;-20
2022/01/25 10:08:09;;;;;;;20.23;12.38;;;10.30;57.30;;;;;;5074352;28;20029;-20
2022/01/25 10:10:41;;;;;;;30.77;16.92;;;10.50;57.50;;;;;;5074067;28;20123;-20
2022/01/25 10:13:20;;;;;;;19.60;11.20;;;10.70;57.00;;;;;;5073856;28;20100;-19
2022/01/25 10:15:49;;;;;;;37.63;20.33;;;10.90;57.00;;;;;;5074236;28;20032;-20
2022/01/25 10:18:16;;;;;;;33.33;18.38;;;11.10;56.90;;;;;;5072275;28;20029;-20
2022/01/25 10:20:45;;;;;;;33.63;20.48;;;11.30;56.60;;;;;;5073845;28;20040;-20
2022/01/25 10:23:32;;;;;;;29.65;17.58;;;11.40;55.80;;;;;;5074093;28;20023;-19
2022/01/25 10:26:02;;;;;;;25.73;15.57;;;11.60;55.90;;;;;;5073951;28;20099;-20
2022/01/25 10:28:29;;;;;;;36.47;20.95;;;11.70;56.00;;;;;;5073480;28;20021;-20
2022/01/25 10:31:04;;;;;;;29.00;16.75;;;11.90;55.30;;;;;;5074071;28;20047;-20
2022/01/25 10:33:39;;;;;;;42.13;24.17;;;11.90;55.50;;;;;;5074138;28;20546;-20
2022/01/25 10:36:17;;;;;;;43.65;23.80;;;12.10;55.60;;;;;;5074373;28;20074;-20
2022/01/25 10:38:46;;;;;;;27.40;16.05;;;12.30;55.60;;;;;;5073482;28;20027;-19
2022/01/25 10:41:15;;;;;;;35.03;20.13;;;12.40;55.70;;;;;;5073285;28;20384;-19
2022/01/25 10:43:43;;;;;;;36.95;20.17;;;12.60;55.20;;;;;;5073364;28;20055;-19
2022/01/25 10:46:26;;;;;;;37.53;18.70;;;12.70;54.70;;;;;;5073684;28;20033;-20
2022/01/25 10:49:04;;;;;;;38.10;21.70;;;12.90;54.50;;;;;;5073362;28;20063;-20
2022/01/25 10:51:50;;;;;;;34.28;21.02;;;13.10;54.00;;;;;;5073603;28;20037;-19
2022/01/25 10:54:24;;;;;;;34.13;19.77;;;13.30;53.30;;;;;;5072538;28;20043;-20
2022/01/25 10:56:59;;;;;;;35.58;20.60;;;13.40;53.50;;;;;;5073089;28;20032;-19
2022/01/25 10:59:29;;;;;;;26.67;16.15;;;13.60;53.40;;;;;;5073115;28;20033;-19
2022/01/25 11:01:58;;;;;;;31.17;18.73;;;13.70;53.50;;;;;;5073396;28;20029;-19
2022/01/25 11:04:31;;;;;;;38.50;23.10;;;13.80;53.30;;;;;;5073129;28;20476;-20
2022/01/25 11:07:00;;;;;;;35.45;21.58;;;13.90;52.90;;;;;;5073510;28;20035;-19
2022/01/25 11:09:35;;;;;;;30.42;18.50;;;14.00;52.50;;;;;;5073173;28;20016;-19
2022/01/25 11:12:03;;;;;;;39.83;22.38;;;14.20;52.60;;;;;;5073380;28;20028;-19
2022/01/25 11:17:15;;;;;;;37.10;21.05;;;14.40;52.00;;;;;;5073369;28;20027;-20
2022/01/25 11:19:42;;;;;;;30.38;18.80;;;14.50;52.30;;;;;;5071445;28;20059;-19
2022/01/25 11:22:11;;;;;;;37.55;21.48;;;14.60;51.90;;;;;;5072936;28;20564;-20
2022/01/25 11:24:39;;;;;;;35.72;22.73;;;14.60;52.20;;;;;;5071538;28;20020;-19
2022/01/25 11:27:07;;;;;;;44.03;26.60;;;14.60;51.90;;;;;;5073153;28;20024;-19
2022/01/25 11:29:36;;;;;;;34.78;21.08;;;14.40;51.60;;;;;;5072875;28;20166;-19
2022/01/25 11:32:07;;;;;;;46.75;28.88;;;14.40;52.10;;;;;;5073128;28;20032;-19
2022/01/25 11:34:35;;;;;;;39.50;24.10;;;14.30;52.10;;;;;;5072698;28;20035;-20
2022/01/25 11:37:05;;;;;;;45.00;27.10;;;14.30;52.50;;;;;;5073607;28;20033;-20
2022/01/25 11:39:32;;;;;;;44.97;27.42;;;14.30;52.00;;;;;;5072904;28;20389;-20
2022/01/25 11:42:11;;;;;;;41.95;24.60;;;14.40;52.40;;;;;;5072996;28;20102;-19
2022/01/25 11:44:52;;;;;;;41.63;25.80;;;14.70;52.10;;;;;;5073322;28;20032;-19
2022/01/25 11:47:34;;;;;;;45.58;28.10;;;14.90;51.60;;;;;;5073123;28;20105;-20
2022/01/25 11:50:05;;;;;;;48.35;29.80;;;15.10;50.70;;;;;;5072869;28;20060;-20
2022/01/25 11:52:32;;;;;;;45.22;28.33;;;15.20;51.20;;;;;;5072706;28;20133;-20
2022/01/25 11:55:16;;;;;;;37.25;22.23;;;15.40;51.30;;;;;;5072966;28;20473;-19
2022/01/25 11:57:47;;;;;;;;;;;15.60;50.00;;;;;;5073403;28;20039;-19
2022/01/25 12:00:13;;;;;;;42.15;25.48;;;15.90;49.80;;;;;;5072449;28;19998;-21
2022/01/25 12:02:46;;;;;;;45.95;26.40;;;16.00;49.80;;;;;;5072541;28;20028;-20
2022/01/25 12:05:16;;;;;;;53.50;31.27;;;16.30;49.30;;;;;;5072773;28;20024;-19
2022/01/25 12:08:26;;;;;;;55.30;32.08;;;16.40;49.00;;;;;;5076234;28;20035;-19
2022/01/25 12:10:59;;;;;;;51.72;29.45;;;16.60;47.50;;;;;;5034516;28;20075;-20
2022/01/25 12:13:30;;;;;;;48.10;29.67;;;16.80;48.00;;;;;;5034497;28;20037;-20
2022/01/25 12:16:26;;;;;;;44.65;26.63;;;16.90;48.10;;;;;;5034278;28;20497;-19
2022/01/25 12:18:53;;;;;;;48.30;30.17;;;17.10;46.40;;;;;;5033836;28;20053;-20
2022/01/25 12:24:35;;;;;;;58.78;35.17;;;17.30;46.40;;;;;;5034091;28;20440;-20
2022/01/25 12:27:14;;;;;;;48.15;31.05;;;17.30;45.90;;;;;;5033890;28;20482;-20
2022/01/25 12:29:58;;;;;;;48.65;29.70;;;17.30;46.90;;;;;;5033971;28;20037;-20
2022/01/25 12:32:27;;;;;;;54.30;32.97;;;17.10;47.00;;;;;;5017296;28;20525;-20
2022/01/25 12:35:13;;;;;;;55.92;35.45;;;16.90;47.00;;;;;;5033693;28;20037;-20
2022/01/25 12:37:44;;;;;;;49.55;29.58;;;16.60;46.60;;;;;;5033787;28;20049;-20
2022/01/25 12:40:25;;;;;;;57.70;34.63;;;16.40;47.90;;;;;;5033618;28;20095;-20
2022/01/25 12:42:53;;;;;;;46.72;28.25;;;16.40;48.10;;;;;;5033563;28;20037;-20
2022/01/25 12:45:21;;;;;;;44.13;26.77;;;16.40;48.60;;;;;;5065669;28;20041;-20
2022/01/25 12:47:55;;;;;;;51.88;30.17;;;16.40;48.60;;;;;;5075793;28;20032;-20
2022/01/25 12:50:22;;;;;;;;;;;16.50;48.10;;;;;;5076388;28;20358;-20
2022/01/25 12:52:48;;;;;;;52.05;30.20;;;16.50;46.10;;;;;;5075351;28;19954;-20
2022/01/25 12:55:15;;;;;;;51.78;29.33;;;16.40;47.60;;;;;;5075544;28;20429;-20
2022/01/25 12:57:50;;;;;;;46.17;28.05;;;16.40;47.80;;;;;;5075414;28;20016;-20
2022/01/25 13:00:16;;;;;;;48.58;26.50;;;16.20;48.10;;;;;;5075057;28;20108;-20
2022/01/25 13:02:43;;;;;;;39.90;22.98;;;16.20;48.20;;;;;;5075561;28;20085;-20
2022/01/25 13:05:21;;;;;;;49.40;29.52;;;16.20;48.40;;;;;;5075247;28;20025;-20
2022/01/25 13:07:48;;;;;;;50.90;29.23;;;16.30;47.30;;;;;;5075131;28;20441;-20
2022/01/25 13:10:25;;;;;;;47.95;27.27;;;16.40;47.80;;;;;;5075157;28;20031;-21
2022/01/25 13:12:57;;;;;;;54.22;32.10;;;16.50;46.90;;;;;;5075703;28;20036;-20
2022/01/25 13:15:51;;;;;;;53.80;30.52;;;16.50;47.60;;;;;;5075382;28;20028;-20
2022/01/25 13:18:17;;;;;;;50.70;28.05;;;16.50;47.50;;;;;;5074796;28;20029;-21
2022/01/25 13:20:47;;;;;;;47.83;28.02;;;16.40;47.70;;;;;;5075156;28;20032;-20
2022/01/25 13:23:14;;;;;;;56.85;31.33;;;16.40;47.90;;;;;;5074843;28;20055;-20
2022/01/25 13:26:05;;;;;;;54.80;33.20;;;16.20;48.00;;;;;;5075167;28;20017;-20
2022/01/25 13:30:57;;;;;;;60.58;33.97;;;15.80;48.60;;;;;;5075081;28;20484;-20
2022/01/25 13:33:24;;;;;;;54.70;32.10;;;15.60;48.90;;;;;;5074699;28;20032;-20
2022/01/25 13:35:53;;;;;;;59.53;32.53;;;15.40;49.20;;;;;;5074683;28;20081;-20
2022/01/25 13:38:24;;;;;;;52.25;30.55;;;15.20;49.50;;;;;;5074434;28;20081;-20
2022/01/25 13:41:03;;;;;;;52.08;30.42;;;15.10;49.60;;;;;;5075310;28;20029;-20
2022/01/25 13:46:40;;;;;;;45.55;24.65;;;14.80;50.40;;;;;;5074576;28;20468;-20
2022/01/25 13:49:11;;;;;;;47.33;27.08;;;14.70;50.10;;;;;;5074684;28;20039;-20
2022/01/25 13:51:44;;;;;;;53.28;28.65;;;14.60;50.60;;;;;;5074414;28;20028;-20
2022/01/25 13:54:14;;;;;;;53.67;29.75;;;14.50;50.60;;;;;;5074312;28;20447;-20
2022/01/25 13:56:41;;;;;;;56.72;31.13;;;14.50;50.80;;;;;;5074468;28;20044;-20
2022/01/25 13:59:09;;;;;;;54.88;30.27;;;14.40;50.90;;;;;;5072919;28;20078;-20
2022/01/25 14:01:38;;;;;;;54.03;27.73;;;14.40;51.20;;;;;;5074457;28;20032;-20
2022/01/25 14:04:20;;;;;;;53.92;28.95;;;14.20;51.20;;;;;;5074441;28;20060;-20
2022/01/25 14:06:57;;;;;;;47.40;26.45;;;14.10;51.00;;;;;;5074482;28;20074;-20
2022/01/25 14:09:30;;;;;;;41.83;24.05;;;14.00;51.70;;;;;;5072850;28;20039;-20
2022/01/25 14:25:31;;;;;;;57.17;30.33;;;13.30;53.10;;;;;;5074234;28;20035;-20
2022/01/25 14:28:02;;;;;;;53.28;26.80;;;13.20;53.30;;;;;;5073207;28;20036;-20
2022/01/25 14:30:32;;;;;;;44.92;23.08;;;13.00;53.60;;;;;;5073431;28;20032;-20
2022/01/25 14:33:11;;;;;;;49.10;26.13;;;12.90;53.80;;;;;;5073589;28;20378;-20
2022/01/25 14:35:49;;;;;;;58.88;31.23;;;12.80;54.00;;;;;;5073582;28;20035;-20
2022/01/25 14:38:39;;;;;;;60.63;30.42;;;12.70;54.10;;;;;;5073306;28;20051;-21
2022/01/25 14:41:19;;;;;;;55.33;27.83;;;12.50;54.40;;;;;;5073466;28;20036;-20
2022/01/25 14:43:53;;;;;;;59.38;31.13;;;12.40;54.80;;;;;;5073781;28;20043;-20
2022/01/25 14:46:34;;;;;;;64.50;34.28;;;12.20;55.20;;;;;;5073221;28;20021;-20
2022/01/25 14:49:17;;;;;;;60.65;29.85;;;12.00;55.50;;;;;;5073659;28;20024;-19
2022/01/25 14:51:59;;;;;;;63.28;31.95;;;11.90;55.90;;;;;;5073344;28;20028;-19
2022/01/25 14:54:30;;;;;;;58.17;30.35;;;11.80;56.00;;;;;;5073217;28;20020;-20
2022/01/25 14:57:01;;;;;;;63.92;32.35;;;11.70;56.40;;;;;;5073201;28;20067;-20
2022/01/25 14:59:32;;;;;;;58.83;29.38;;;11.60;56.70;;;;;;5073447;28;20484;-20
2022/01/25 15:02:04;;;;;;;56.63;27.25;;;11.50;56.70;;;;;;5073730;28;20037;-20
2022/01/25 15:04:39;;;;;;;66.43;31.67;;;11.40;57.00;;;;;;5073016;28;20488;-20
2022/01/25 15:07:11;;;;;;;64.05;31.75;;;11.20;57.40;;;;;;5073783;28;20410;-20
2022/01/25 15:09:48;;;;;;;67.55;32.47;;;11.20;57.40;;;;;;5073081;28;20052;-20
2022/01/25 15:12:16;;;;;;;62.72;30.42;;;11.00;57.70;;;;;;5072883;28;20028;-20
2022/01/25 15:14:53;;;;;;;64.88;31.63;;;10.90;58.00;;;;;;5073752;28;20036;-20